sensor_id;sensor_type;location;lat;lon;timestamp;P1;durP1;ratioP1;P2;durP2;ratioP2
46633;SDS011;32362;49.986;8.026;2022-12-04T00:21:11;7.70;;;5.00;;
46633;SDS011;32362;49.986;8.026;2022-12-04T00:47:52;7.20;;;4.25;;
46633;SDS011;32362;49.986;8.026;2022-12-04T01:14:33;8.05;;;4.85;;
46633;SDS011;32362;49.986;8.026;2022-12-04T01:41:16;7.13;;;4.60;;
46633;SDS011;32362;49.986;8.026;2022-12-04T02:08:00;6.47;;;4.38;;
46633;SDS011;32362;49.986;8.026;2022-12-04T03:01:35;6.15;;;4.25;;
46633;SDS011;32362;49.986;8.026;2022-12-04T03:28:26;7.18;;;4.50;;
46633;SDS011;32362;49.986;8.026;2022-12-04T03:55:57;6.57;;;4.43;;
46633;SDS011;32362;49.986;8.026;2022-12-04T04:22:30;5.40;;;4.35;;
46633;SDS011;32362;49.986;8.026;2022-12-04T04:49:31;5.03;;;3.78;;
46633;SDS011;32362;49.986;8.026;2022-12-04T05:16:14;7.18;;;3.78;;
46633;SDS011;32362;49.986;8.026;2022-12-04T05:42:55;10.40;;;6.72;;
46633;SDS011;32362;49.986;8.026;2022-12-04T06:26:34;13.57;;;7.38;;
46633;SDS011;32362;49.986;8.026;2022-12-04T06:53:16;14.85;;;7.90;;
46633;SDS011;32362;49.986;8.026;2022-12-04T07:19:56;17.93;;;8.87;;
46633;SDS011;32362;49.986;8.026;2022-12-04T07:46:37;12.40;;;6.30;;
46633;SDS011;32362;49.986;8.026;2022-12-04T08:13:17;12.07;;;5.97;;
46633;SDS011;32362;49.986;8.026;2022-12-04T08:39:58;17.30;;;8.10;;
46633;SDS011;32362;49.986;8.026;2022-12-04T09:06:39;14.32;;;6.90;;
46633;SDS011;32362;49.986;8.026;2022-12-04T09:33:20;13.73;;;6.05;;
46633;SDS011;32362;49.986;8.026;2022-12-04T10:00:02;13.97;;;6.50;;
46633;SDS011;32362;49.986;8.026;2022-12-04T10:26:50;14.93;;;7.38;;
46633;SDS011;32362;49.986;8.026;2022-12-04T10:53:35;11.05;;;5.63;;
46633;SDS011;32362;49.986;8.026;2022-12-04T11:20:18;12.75;;;5.43;;
46633;SDS011;32362;49.986;8.026;2022-12-04T11:47:00;9.35;;;5.32;;
46633;SDS011;32362;49.986;8.026;2022-12-04T12:40:58;10.02;;;6.22;;
46633;SDS011;32362;49.986;8.026;2022-12-04T14:01:28;12.73;;;6.65;;
46633;SDS011;32362;49.986;8.026;2022-12-04T14:28:24;14.88;;;7.05;;
46633;SDS011;32362;49.986;8.026;2022-12-04T15:22:21;16.20;;;8.07;;
46633;SDS011;32362;49.986;8.026;2022-12-04T15:49:17;16.88;;;7.65;;
46633;SDS011;32362;49.986;8.026;2022-12-04T16:16:00;17.60;;;8.02;;
46633;SDS011;32362;49.986;8.026;2022-12-04T16:42:47;14.05;;;7.25;;
46633;SDS011;32362;49.986;8.026;2022-12-04T17:09:28;22.38;;;10.32;;
46633;SDS011;32362;49.986;8.026;2022-12-04T17:36:11;24.43;;;10.47;;
46633;SDS011;32362;49.986;8.026;2022-12-04T18:03:03;22.05;;;10.43;;
46633;SDS011;32362;49.986;8.026;2022-12-04T18:29:44;16.48;;;8.75;;
46633;SDS011;32362;49.986;8.026;2022-12-04T18:56:25;26.57;;;12.80;;
46633;SDS011;32362;49.986;8.026;2022-12-04T19:23:06;31.70;;;12.82;;
46633;SDS011;32362;49.986;8.026;2022-12-04T19:49:47;30.40;;;12.93;;
46633;SDS011;32362;49.986;8.026;2022-12-04T20:16:28;25.92;;;12.95;;
46633;SDS011;32362;49.986;8.026;2022-12-04T20:43:10;25.67;;;10.35;;
46633;SDS011;32362;49.986;8.026;2022-12-04T21:09:51;28.08;;;11.82;;
46633;SDS011;32362;49.986;8.026;2022-12-04T21:36:32;25.03;;;11.17;;
46633;SDS011;32362;49.986;8.026;2022-12-04T22:03:13;23.67;;;11.00;;
46633;SDS011;32362;49.986;8.026;2022-12-04T22:29:54;25.25;;;11.95;;
46633;SDS011;32362;49.986;8.026;2022-12-04T22:56:35;30.63;;;12.87;;
46633;SDS011;32362;49.986;8.026;2022-12-04T23:23:15;34.83;;;13.70;;
46633;SDS011;32362;49.986;8.026;2022-12-04T23:49:56;24.87;;;10.10;;
